Latest Weather Observations for Kurnell

IDN60901

Issued at 2:25 pm EDT Saturday 25 October 2014 (issued every 10 minutes, with the page automatically refreshed every 10 minutes)

About weather observations | Map of Sydney area stations | Latest observations for Sydney area | Other Formats
Station Details ID: 066043 Name: KURNELL AWS Lat: -34.00 Lon: 151.21 Height: 4.0 m
Data from the previous 72 hours. | See also: Recent months for locations in New South Wales
Date/Time
EDT
Tmp

°C
App
Tmp
°C
Dew
Point
°C
Rel
Hum
%
Delta-T

°C
Wind Press
QNH
hPa
Press
MSL
hPa
Rain
since
9 am
mm
Dir
 
Spd
km/h
Gust
km/h
Spd
kts
Gust
kts
25/02:00pm - - - - - S 30 39 16 21 - - -
25/01:30pm - - - - - S 28 35 15 19 - - -
25/01:00pm - - - - - S 28 35 15 19 - - -
25/12:30pm - - - - - S 26 35 14 19 - - -
25/12:00pm - - - - - S 28 35 15 19 - - -
25/11:30am - - - - - S 20 32 11 17 - - -
25/11:00am - - - - - SSW 17 24 9 13 - - -
25/10:30am - - - - - SSW 22 32 12 17 - - -
25/10:00am - - - - - SSW 22 28 12 15 - - -
25/09:30am - - - - - NW 9 11 5 6 - - -
25/09:00am - - - - - NW 11 17 6 9 - - -
25/08:30am - - - - - WNW 7 9 4 5 - - -
25/08:00am - - - - - NW 13 15 7 8 - - -
25/07:30am - - - - - W 11 13 6 7 - - -
25/07:00am - - - - - W 11 13 6 7 - - -
25/06:30am - - - - - WSW 11 13 6 7 - - -
25/06:00am - - - - - CALM 0 0 0 0 - - -
25/05:30am - - - - - CALM 0 0 0 0 - - -
25/05:00am - - - - - NNW 6 9 3 5 - - -
25/04:30am - - - - - NNE 7 11 4 6 - - -
25/04:00am - - - - - NE 11 15 6 8 - - -
25/03:30am - - - - - ENE 11 13 6 7 - - -
25/03:00am - - - - - E 9 13 5 7 - - -
25/02:30am - - - - - S 7 7 4 4 - - -
25/02:00am - - - - - CALM 0 0 0 0 - - -
25/01:30am - - - - - SW 9 11 5 6 - - -
25/01:00am - - - - - SSE 6 9 3 5 - - -
25/12:30am - - - - - S 9 11 5 6 - - -
25/12:00am - - - - - SE 7 11 4 6 - - -
 
Date/Time
EDT
Tmp

°C
App
Tmp
°C
Dew
Point
°C
Rel
Hum
%
Delta-T

°C
Wind Press
QNH
hPa
Press
MSL
hPa
Rain
since
9 am
mm
Dir
 
Spd
km/h
Gust
km/h
Spd
kts
Gust
kts
24/11:30pm - - - - - S 15 19 8 10 - - -
24/11:00pm - - - - - ENE 17 20 9 11 - - -
24/10:30pm - - - - - NE 24 28 13 15 - - -
24/10:00pm - - - - - N 26 35 14 19 - - -
24/09:30pm - - - - - N 24 33 13 18 - - -
24/09:00pm - - - - - NNE 41 50 22 27 - - -
24/08:30pm - - - - - NNE 43 52 23 28 - - -
24/08:00pm - - - - - NE 44 56 24 30 - - -
24/07:30pm - - - - - NE 43 54 23 29 - - -
24/07:00pm - - - - - NE 43 56 23 30 - - -
24/06:30pm - - - - - NE 41 52 22 28 - - -
24/06:00pm - - - - - NE 39 46 21 25 - - -
24/05:30pm - - - - - NE 43 57 23 31 - - -
24/05:00pm - - - - - NE 43 54 23 29 - - -
24/04:30pm - - - - - NE 46 57 25 31 - - -
24/04:00pm - - - - - NE 44 57 24 31 - - -
24/03:30pm - - - - - NE 43 52 23 28 - - -
24/03:00pm - - - - - NE 39 46 21 25 - - -
24/02:30pm - - - - - NE 41 46 22 25 - - -
24/02:00pm - - - - - NE 39 48 21 26 - - -
24/01:30pm - - - - - NE 35 39 19 21 - - -
24/01:00pm - - - - - ENE 33 39 18 21 - - -
24/12:30pm - - - - - E 28 35 15 19 - - -
24/12:24pm - - - - - E 28 33 15 18 - - -
24/12:00pm - - - - - NNE 6 9 3 5 - - -
24/11:30am - - - - - N 15 19 8 10 - - -
24/11:00am - - - - - NNE 17 20 9 11 - - -
24/10:51am - - - - - E 28 32 15 17 - - -
24/10:30am - - - - - SSW 9 13 5 7 - - -
24/10:00am - - - - - NNW 13 17 7 9 - - -
24/09:30am - - - - - NNW 17 20 9 11 - - -
24/09:00am - - - - - NNW 17 22 9 12 - - -
24/08:30am - - - - - N 19 24 10 13 - - -
24/08:00am - - - - - N 15 20 8 11 - - -
24/07:30am - - - - - ESE 17 24 9 13 - - -
24/07:16am - - - - - ENE 28 33 15 18 - - -
24/07:00am - - - - - SSE 11 15 6 8 - - -
24/06:30am - - - - - SE 15 17 8 9 - - -
24/06:00am - - - - - SSE 13 17 7 9 - - -
24/05:50am - - - - - WSW 28 30 15 16 - - -
24/05:30am - - - - - SW 7 9 4 5 - - -
24/05:00am - - - - - W 7 11 4 6 - - -
24/04:30am - - - - - W 4 7 2 4 - - -
24/04:00am - - - - - W 26 30 14 16 - - -
24/03:30am - - - - - NE 9 13 5 7 - - -
24/03:00am - - - - - NE 13 15 7 8 - - -
24/02:30am - - - - - E 15 19 8 10 - - -
24/02:00am - - - - - S 17 24 9 13 - - -
24/01:30am - - - - - S 20 30 11 16 - - -
24/01:00am - - - - - S 13 17 7 9 - - -
24/12:30am - - - - - S 13 15 7 8 - - -
24/12:00am - - - - - S 9 9 5 5 - - -
 
Date/Time
EDT
Tmp

°C
App
Tmp
°C
Dew
Point
°C
Rel
Hum
%
Delta-T

°C
Wind Press
QNH
hPa
Press
MSL
hPa
Rain
since
9 am
mm
Dir
 
Spd
km/h
Gust
km/h
Spd
kts
Gust
kts
23/11:30pm - - - - - ESE 9 9 5 5 - - -
23/11:00pm - - - - - CALM 0 9 0 5 - - -
23/10:30pm - - - - - SSE 7 9 4 5 - - -
23/10:00pm - - - - - ESE 11 13 6 7 - - -
23/09:30pm - - - - - SE 9 11 5 6 - - -
23/09:00pm - - - - - S 9 11 5 6 - - -
23/08:30pm - - - - - S 9 11 5 6 - - -
23/08:00pm - - - - - SE 6 7 3 4 - - -
23/07:30pm - - - - - SSE 9 11 5 6 - - -
23/07:00pm - - - - - ESE 4 7 2 4 - - -
23/06:30pm - - - - - E 9 11 5 6 - - -
23/06:00pm - - - - - E 11 15 6 8 - - -
23/05:30pm - - - - - E 13 19 7 10 - - -
23/05:00pm - - - - - E 15 19 8 10 - - -
23/04:30pm - - - - - E 17 20 9 11 - - -
23/04:00pm - - - - - E 17 24 9 13 - - -
23/03:30pm - - - - - E 15 20 8 11 - - -
23/03:00pm - - - - - E 17 22 9 12 - - -
23/02:30pm - - - - - E 13 19 7 10 - - -
23/02:00pm - - - - - SE 17 20 9 11 - - -
23/01:30pm - - - - - ESE 17 20 9 11 - - -
23/01:00pm - - - - - SE 15 19 8 10 - - -
23/12:30pm - - - - - NE 9 13 5 7 - - -
23/12:00pm - - - - - ENE 13 15 7 8 - - -
23/11:30am - - - - - ENE 11 13 6 7 - - -
23/11:00am - - - - - NW 2 6 1 3 - - -
23/10:30am - - - - - N 9 11 5 6 - - -
23/10:00am - - - - - N 11 15 6 8 - - -
23/09:30am - - - - - NNW 9 11 5 6 - - -
23/09:00am - - - - - NNW 9 13 5 7 - - -
23/08:30am - - - - - N 13 15 7 8 - - -
23/08:00am - - - - - NW 15 19 8 10 - - -
23/07:30am - - - - - NW 17 19 9 10 - - -
23/07:00am - - - - - NW 13 17 7 9 - - -
23/06:30am - - - - - NNW 17 20 9 11 - - -
23/06:00am - - - - - N 15 19 8 10 - - -
23/05:30am - - - - - N 13 17 7 9 - - -
23/05:00am - - - - - N 13 17 7 9 - - -
23/04:30am - - - - - N 11 15 6 8 - - -
23/04:00am - - - - - N 13 17 7 9 - - -
23/03:30am - - - - - NNW 13 15 7 8 - - -
23/03:00am - - - - - NNW 9 13 5 7 - - -
23/02:30am - - - - - N 9 13 5 7 - - -
23/02:00am - - - - - N 13 15 7 8 - - -
23/01:30am - - - - - N 13 17 7 9 - - -
23/01:00am - - - - - NNE 17 22 9 12 - - -
23/12:30am - - - - - NNE 22 26 12 14 - - -
23/12:00am - - - - - NNE 19 26 10 14 - - -
 
Date/Time
EDT
Tmp

°C
App
Tmp
°C
Dew
Point
°C
Rel
Hum
%
Delta-T

°C
Wind Press
QNH
hPa
Press
MSL
hPa
Rain
since
9 am
mm
Dir
 
Spd
km/h
Gust
km/h
Spd
kts
Gust
kts
22/11:30pm - - - - - NNE 20 28 11 15 - - -
22/11:00pm - - - - - NNE 22 32 12 17 - - -
22/10:30pm - - - - - NNE 28 33 15 18 - - -
22/10:00pm - - - - - NNE 30 43 16 23 - - -
22/09:30pm - - - - - NNE 32 37 17 20 - - -
22/09:00pm - - - - - NE 33 41 18 22 - - -
22/08:30pm - - - - - NE 33 41 18 22 - - -
22/08:00pm - - - - - NE 35 48 19 26 - - -
22/07:30pm - - - - - NE 37 46 20 25 - - -
22/07:00pm - - - - - NE 37 46 20 25 - - -
22/06:30pm - - - - - NE 39 46 21 25 - - -
22/06:00pm - - - - - NE 39 46 21 25 - - -
22/05:30pm - - - - - NE 41 48 22 26 - - -
22/05:00pm - - - - - NE 37 48 20 26 - - -
22/04:30pm - - - - - NE 37 46 20 25 - - -
22/04:00pm - - - - - NE 37 46 20 25 - - -
22/03:30pm - - - - - NE 37 44 20 24 - - -
22/03:00pm - - - - - NE 39 44 21 24 - - -
22/02:30pm - - - - - NE 35 41 19 22 - - -

Latest Capital City Observations: Canberra | Sydney | Melbourne | Brisbane | Adelaide | Perth | Hobart | Darwin

Other Formats:

Comma delimited format used in spreadsheet applications
http://www.bom.gov.au/fwo/IDN60901/IDN60901.95756.axf

JavaScript Object Notation format (JSON) in row-major order
http://www.bom.gov.au/fwo/IDN60901/IDN60901.95756.json